sensor_id;sensor_type;location;lat;lon;timestamp;temperature;humidity
9033;DHT22;4551;53.164;8.210;2023-03-15T00:00:48;1.80;99.90
9033;DHT22;4551;53.164;8.210;2023-03-15T00:03:16;1.80;99.90
9033;DHT22;4551;53.164;8.210;2023-03-15T00:05:46;1.80;99.90
9033;DHT22;4551;53.164;8.210;2023-03-15T00:08:17;1.80;99.90
9033;DHT22;4551;53.164;8.210;2023-03-15T00:10:45;1.80;99.90
9033;DHT22;4551;53.164;8.210;2023-03-15T00:13:15;1.80;99.90
9033;DHT22;4551;53.164;8.210;2023-03-15T00:15:43;1.80;99.90
9033;DHT22;4551;53.164;8.210;2023-03-15T00:18:12;1.80;99.90
9033;DHT22;4551;53.164;8.210;2023-03-15T00:20:40;1.90;99.90
9033;DHT22;4551;53.164;8.210;2023-03-15T00:23:10;1.90;99.90
9033;DHT22;4551;53.164;8.210;2023-03-15T00:25:38;1.90;99.90
9033;DHT22;4551;53.164;8.210;2023-03-15T00:28:06;1.90;99.90
9033;DHT22;4551;53.164;8.210;2023-03-15T00:30:34;1.80;99.90
9033;DHT22;4551;53.164;8.210;2023-03-15T00:33:02;1.80;99.90
9033;DHT22;4551;53.164;8.210;2023-03-15T00:35:31;1.80;99.90
9033;DHT22;4551;53.164;8.210;2023-03-15T00:38:00;1.80;99.90
9033;DHT22;4551;53.164;8.210;2023-03-15T00:40:31;1.80;99.90
9033;DHT22;4551;53.164;8.210;2023-03-15T00:43:00;1.80;99.90
9033;DHT22;4551;53.164;8.210;2023-03-15T00:45:29;1.80;99.90
9033;DHT22;4551;53.164;8.210;2023-03-15T00:47:59;1.80;99.90
9033;DHT22;4551;53.164;8.210;2023-03-15T00:50:29;1.90;99.90
9033;DHT22;4551;53.164;8.210;2023-03-15T00:52:57;1.90;99.90
9033;DHT22;4551;53.164;8.210;2023-03-15T00:55:25;1.90;99.90
9033;DHT22;4551;53.164;8.210;2023-03-15T00:57:57;1.90;99.90
9033;DHT22;4551;53.164;8.210;2023-03-15T01:00:25;1.90;99.90
9033;DHT22;4551;53.164;8.210;2023-03-15T01:02:53;1.90;99.90
9033;DHT22;4551;53.164;8.210;2023-03-15T01:05:21;1.90;99.90
9033;DHT22;4551;53.164;8.210;2023-03-15T01:07:55;1.90;99.90
9033;DHT22;4551;53.164;8.210;2023-03-15T01:10:23;1.90;99.90
9033;DHT22;4551;53.164;8.210;2023-03-15T01:12:51;1.90;99.90
9033;DHT22;4551;53.164;8.210;2023-03-15T01:15:20;1.90;99.90
9033;DHT22;4551;53.164;8.210;2023-03-15T01:17:50;2.00;99.90
9033;DHT22;4551;53.164;8.210;2023-03-15T01:20:18;1.90;99.90
9033;DHT22;4551;53.164;8.210;2023-03-15T01:22:55;2.00;99.90
9033;DHT22;4551;53.164;8.210;2023-03-15T01:25:23;2.00;99.90
9033;DHT22;4551;53.164;8.210;2023-03-15T01:27:51;2.00;99.90
9033;DHT22;4551;53.164;8.210;2023-03-15T01:30:23;2.00;99.90
9033;DHT22;4551;53.164;8.210;2023-03-15T01:32:56;2.10;99.90
9033;DHT22;4551;53.164;8.210;2023-03-15T01:35:27;2.10;99.90
9033;DHT22;4551;53.164;8.210;2023-03-15T01:37:55;2.10;99.90
9033;DHT22;4551;53.164;8.210;2023-03-15T01:40:23;2.10;99.90
9033;DHT22;4551;53.164;8.210;2023-03-15T01:43:11;2.10;99.90
9033;DHT22;4551;53.164;8.210;2023-03-15T01:46:02;2.10;99.90
9033;DHT22;4551;53.164;8.210;2023-03-15T01:48:32;2.10;99.90
9033;DHT22;4551;53.164;8.210;2023-03-15T01:51:02;2.10;99.90
9033;DHT22;4551;53.164;8.210;2023-03-15T01:53:31;2.20;99.90
9033;DHT22;4551;53.164;8.210;2023-03-15T01:56:02;2.20;99.90
9033;DHT22;4551;53.164;8.210;2023-03-15T01:58:31;2.20;99.90
9033;DHT22;4551;53.164;8.210;2023-03-15T02:01:05;2.20;99.90
9033;DHT22;4551;53.164;8.210;2023-03-15T02:03:34;2.20;99.90
9033;DHT22;4551;53.164;8.210;2023-03-15T02:06:03;2.20;99.90
9033;DHT22;4551;53.164;8.210;2023-03-15T02:08:34;2.20;99.90
9033;DHT22;4551;53.164;8.210;2023-03-15T02:11:04;2.20;99.90
9033;DHT22;4551;53.164;8.210;2023-03-15T02:13:32;2.20;99.90
9033;DHT22;4551;53.164;8.210;2023-03-15T02:16:01;2.20;99.90
9033;DHT22;4551;53.164;8.210;2023-03-15T02:18:35;2.20;99.90
9033;DHT22;4551;53.164;8.210;2023-03-15T02:21:06;2.20;99.90
9033;DHT22;4551;53.164;8.210;2023-03-15T02:23:35;2.20;99.90
9033;DHT22;4551;53.164;8.210;2023-03-15T02:26:06;2.20;99.90
9033;DHT22;4551;53.164;8.210;2023-03-15T02:28:40;2.20;99.90
9033;DHT22;4551;53.164;8.210;2023-03-15T02:31:08;2.20;99.90
9033;DHT22;4551;53.164;8.210;2023-03-15T02:33:40;2.20;99.90
9033;DHT22;4551;53.164;8.210;2023-03-15T02:36:16;2.20;99.90
9033;DHT22;4551;53.164;8.210;2023-03-15T02:38:45;2.20;99.90
9033;DHT22;4551;53.164;8.210;2023-03-15T02:41:14;2.20;99.90
9033;DHT22;4551;53.164;8.210;2023-03-15T02:43:44;2.20;99.90
9033;DHT22;4551;53.164;8.210;2023-03-15T02:46:23;2.20;99.90
9033;DHT22;4551;53.164;8.210;2023-03-15T02:48:52;2.20;99.90
9033;DHT22;4551;53.164;8.210;2023-03-15T02:51:21;2.20;99.90
9033;DHT22;4551;53.164;8.210;2023-03-15T02:53:53;2.20;99.90
9033;DHT22;4551;53.164;8.210;2023-03-15T02:56:24;2.20;99.90
9033;DHT22;4551;53.164;8.210;2023-03-15T02:58:56;2.20;99.90
9033;DHT22;4551;53.164;8.210;2023-03-15T03:01:25;2.20;99.90
9033;DHT22;4551;53.164;8.210;2023-03-15T03:03:53;2.20;99.90
9033;DHT22;4551;53.164;8.210;2023-03-15T03:06:21;2.20;99.90
9033;DHT22;4551;53.164;8.210;2023-03-15T03:08:50;2.20;99.90
9033;DHT22;4551;53.164;8.210;2023-03-15T03:11:20;2.20;99.90
9033;DHT22;4551;53.164;8.210;2023-03-15T03:13:53;2.30;99.90
9033;DHT22;4551;53.164;8.210;2023-03-15T03:16:23;2.30;99.90
9033;DHT22;4551;53.164;8.210;2023-03-15T03:19:00;2.20;99.90
9033;DHT22;4551;53.164;8.210;2023-03-15T03:21:29;2.30;99.90
9033;DHT22;4551;53.164;8.210;2023-03-15T03:23:57;2.30;99.90
9033;DHT22;4551;53.164;8.210;2023-03-15T03:26:25;2.30;99.90
9033;DHT22;4551;53.164;8.210;2023-03-15T03:28:55;2.30;99.90
9033;DHT22;4551;53.164;8.210;2023-03-15T03:31:23;2.30;99.90
9033;DHT22;4551;53.164;8.210;2023-03-15T03:33:51;2.30;99.90
9033;DHT22;4551;53.164;8.210;2023-03-15T03:36:20;2.30;99.90
9033;DHT22;4551;53.164;8.210;2023-03-15T03:38:48;2.30;99.90
9033;DHT22;4551;53.164;8.210;2023-03-15T03:41:16;2.30;99.90
9033;DHT22;4551;53.164;8.210;2023-03-15T03:43:44;2.30;99.90
9033;DHT22;4551;53.164;8.210;2023-03-15T03:46:14;2.30;99.90
9033;DHT22;4551;53.164;8.210;2023-03-15T03:48:46;2.20;99.90
9033;DHT22;4551;53.164;8.210;2023-03-15T03:51:14;2.20;99.90
9033;DHT22;4551;53.164;8.210;2023-03-15T03:53:42;2.20;99.90
9033;DHT22;4551;53.164;8.210;2023-03-15T03:56:10;2.20;99.90
9033;DHT22;4551;53.164;8.210;2023-03-15T03:58:38;2.20;99.90
9033;DHT22;4551;53.164;8.210;2023-03-15T04:01:07;2.10;99.90
9033;DHT22;4551;53.164;8.210;2023-03-15T04:03:36;2.10;99.90
9033;DHT22;4551;53.164;8.210;2023-03-15T04:06:05;2.10;99.90
9033;DHT22;4551;53.164;8.210;2023-03-15T04:08:43;2.00;99.90
9033;DHT22;4551;53.164;8.210;2023-03-15T04:11:11;2.00;99.90
9033;DHT22;4551;53.164;8.210;2023-03-15T04:13:43;2.00;99.90
9033;DHT22;4551;53.164;8.210;2023-03-15T04:16:15;2.00;99.90
9033;DHT22;4551;53.164;8.210;2023-03-15T04:18:44;1.90;99.90
9033;DHT22;4551;53.164;8.210;2023-03-15T04:21:12;1.90;99.90
9033;DHT22;4551;53.164;8.210;2023-03-15T04:23:40;1.80;99.90
9033;DHT22;4551;53.164;8.210;2023-03-15T04:26:08;1.80;99.90
9033;DHT22;4551;53.164;8.210;2023-03-15T04:28:36;1.80;99.90
9033;DHT22;4551;53.164;8.210;2023-03-15T04:31:04;1.80;99.90
9033;DHT22;4551;53.164;8.210;2023-03-15T04:33:36;1.80;99.90
9033;DHT22;4551;53.164;8.210;2023-03-15T04:36:06;1.70;99.90
9033;DHT22;4551;53.164;8.210;2023-03-15T04:38:44;1.70;99.90
9033;DHT22;4551;53.164;8.210;2023-03-15T04:41:13;1.70;99.90
9033;DHT22;4551;53.164;8.210;2023-03-15T04:43:41;1.60;99.90
9033;DHT22;4551;53.164;8.210;2023-03-15T04:46:09;1.60;99.90
9033;DHT22;4551;53.164;8.210;2023-03-15T04:48:38;1.60;99.90
9033;DHT22;4551;53.164;8.210;2023-03-15T04:51:11;1.60;99.90
9033;DHT22;4551;53.164;8.210;2023-03-15T04:53:42;1.60;99.90
9033;DHT22;4551;53.164;8.210;2023-03-15T04:56:10;1.60;99.90
9033;DHT22;4551;53.164;8.210;2023-03-15T04:58:38;1.60;99.90
9033;DHT22;4551;53.164;8.210;2023-03-15T05:01:06;1.60;99.90
9033;DHT22;4551;53.164;8.210;2023-03-15T05:03:35;1.60;99.90
9033;DHT22;4551;53.164;8.210;2023-03-15T05:06:03;1.60;99.90
9033;DHT22;4551;53.164;8.210;2023-03-15T05:08:35;1.60;99.90
9033;DHT22;4551;53.164;8.210;2023-03-15T05:11:04;1.50;99.90
9033;DHT22;4551;53.164;8.210;2023-03-15T05:13:34;1.50;99.90
9033;DHT22;4551;53.164;8.210;2023-03-15T05:16:02;1.50;99.90
9033;DHT22;4551;53.164;8.210;2023-03-15T05:18:30;1.50;99.90
9033;DHT22;4551;53.164;8.210;2023-03-15T05:20:58;1.40;99.90
9033;DHT22;4551;53.164;8.210;2023-03-15T05:23:30;1.40;99.90
9033;DHT22;4551;53.164;8.210;2023-03-15T05:26:00;1.40;99.90
9033;DHT22;4551;53.164;8.210;2023-03-15T05:28:29;1.30;99.90
9033;DHT22;4551;53.164;8.210;2023-03-15T05:30:57;1.30;99.90
9033;DHT22;4551;53.164;8.210;2023-03-15T05:33:27;1.30;99.90
9033;DHT22;4551;53.164;8.210;2023-03-15T05:35:55;1.30;99.90
9033;DHT22;4551;53.164;8.210;2023-03-15T05:38:24;1.30;99.90
9033;DHT22;4551;53.164;8.210;2023-03-15T05:40:52;1.20;99.90
9033;DHT22;4551;53.164;8.210;2023-03-15T05:43:22;1.20;99.90
9033;DHT22;4551;53.164;8.210;2023-03-15T05:45:50;1.20;99.90
9033;DHT22;4551;53.164;8.210;2023-03-15T05:48:18;1.20;99.90
9033;DHT22;4551;53.164;8.210;2023-03-15T05:50:46;1.10;99.90
9033;DHT22;4551;53.164;8.210;2023-03-15T05:53:14;1.10;99.90
9033;DHT22;4551;53.164;8.210;2023-03-15T05:55:42;1.10;99.90
9033;DHT22;4551;53.164;8.210;2023-03-15T05:58:10;1.10;99.90
9033;DHT22;4551;53.164;8.210;2023-03-15T06:00:40;1.10;99.90
9033;DHT22;4551;53.164;8.210;2023-03-15T06:03:08;1.10;99.90
9033;DHT22;4551;53.164;8.210;2023-03-15T06:05:36;1.10;99.90
9033;DHT22;4551;53.164;8.210;2023-03-15T06:08:04;1.10;99.90
9033;DHT22;4551;53.164;8.210;2023-03-15T06:10:32;1.00;99.90
9033;DHT22;4551;53.164;8.210;2023-03-15T06:13:00;1.10;99.90
9033;DHT22;4551;53.164;8.210;2023-03-15T06:15:28;1.10;99.90
9033;DHT22;4551;53.164;8.210;2023-03-15T06:17:57;1.10;99.90
9033;DHT22;4551;53.164;8.210;2023-03-15T06:20:25;1.10;99.90
9033;DHT22;4551;53.164;8.210;2023-03-15T06:22:53;1.10;99.90
9033;DHT22;4551;53.164;8.210;2023-03-15T06:25:27;1.10;99.90
9033;DHT22;4551;53.164;8.210;2023-03-15T06:27:56;1.10;99.90
9033;DHT22;4551;53.164;8.210;2023-03-15T06:30:24;1.20;99.90
9033;DHT22;4551;53.164;8.210;2023-03-15T06:32:53;1.20;99.90
9033;DHT22;4551;53.164;8.210;2023-03-15T06:35:23;1.20;99.90
9033;DHT22;4551;53.164;8.210;2023-03-15T06:37:51;1.20;99.90
9033;DHT22;4551;53.164;8.210;2023-03-15T06:40:19;1.20;99.90
9033;DHT22;4551;53.164;8.210;2023-03-15T06:42:47;1.20;99.90
9033;DHT22;4551;53.164;8.210;2023-03-15T06:45:15;1.20;99.90
9033;DHT22;4551;53.164;8.210;2023-03-15T06:47:45;1.20;99.90
9033;DHT22;4551;53.164;8.210;2023-03-15T06:50:13;1.20;99.90
9033;DHT22;4551;53.164;8.210;2023-03-15T06:52:42;1.20;99.90
9033;DHT22;4551;53.164;8.210;2023-03-15T06:55:10;1.20;99.90
9033;DHT22;4551;53.164;8.210;2023-03-15T06:57:43;1.20;99.90
9033;DHT22;4551;53.164;8.210;2023-03-15T07:00:13;1.20;99.90
9033;DHT22;4551;53.164;8.210;2023-03-15T07:02:42;1.30;99.90
9033;DHT22;4551;53.164;8.210;2023-03-15T07:05:12;1.30;99.90
9033;DHT22;4551;53.164;8.210;2023-03-15T07:07:45;1.30;99.90
9033;DHT22;4551;53.164;8.210;2023-03-15T07:10:13;1.30;99.90
9033;DHT22;4551;53.164;8.210;2023-03-15T07:12:41;1.30;99.90
9033;DHT22;4551;53.164;8.210;2023-03-15T07:15:09;1.40;99.90
9033;DHT22;4551;53.164;8.210;2023-03-15T07:17:39;1.40;99.90
9033;DHT22;4551;53.164;8.210;2023-03-15T07:20:07;1.40;99.90
9033;DHT22;4551;53.164;8.210;2023-03-15T07:22:36;1.50;99.90
9033;DHT22;4551;53.164;8.210;2023-03-15T07:25:06;1.50;99.90
9033;DHT22;4551;53.164;8.210;2023-03-15T07:27:37;1.50;99.90
9033;DHT22;4551;53.164;8.210;2023-03-15T07:30:06;1.60;99.90
9033;DHT22;4551;53.164;8.210;2023-03-15T07:32:35;1.60;99.90
9033;DHT22;4551;53.164;8.210;2023-03-15T07:35:05;1.60;99.90
9033;DHT22;4551;53.164;8.210;2023-03-15T07:37:33;1.70;99.90
9033;DHT22;4551;53.164;8.210;2023-03-15T07:40:01;1.70;99.90
9033;DHT22;4551;53.164;8.210;2023-03-15T07:42:40;1.80;99.90
9033;DHT22;4551;53.164;8.210;2023-03-15T07:45:08;1.90;99.90
9033;DHT22;4551;53.164;8.210;2023-03-15T07:47:36;1.90;99.90
9033;DHT22;4551;53.164;8.210;2023-03-15T07:50:05;2.00;99.90
9033;DHT22;4551;53.164;8.210;2023-03-15T07:52:33;2.00;99.90
9033;DHT22;4551;53.164;8.210;2023-03-15T07:55:01;2.10;99.90
9033;DHT22;4551;53.164;8.210;2023-03-15T07:57:30;2.10;99.90
9033;DHT22;4551;53.164;8.210;2023-03-15T08:00:00;2.20;99.90
9033;DHT22;4551;53.164;8.210;2023-03-15T08:02:28;2.30;99.90
9033;DHT22;4551;53.164;8.210;2023-03-15T08:04:56;2.40;99.90
9033;DHT22;4551;53.164;8.210;2023-03-15T08:07:24;2.50;99.90
9033;DHT22;4551;53.164;8.210;2023-03-15T08:09:52;2.60;99.90
9033;DHT22;4551;53.164;8.210;2023-03-15T08:12:20;2.60;99.90
9033;DHT22;4551;53.164;8.210;2023-03-15T08:14:48;2.70;99.90
9033;DHT22;4551;53.164;8.210;2023-03-15T08:17:21;2.80;99.90
9033;DHT22;4551;53.164;8.210;2023-03-15T08:19:49;2.90;99.90
9033;DHT22;4551;53.164;8.210;2023-03-15T08:22:17;3.00;99.90
9033;DHT22;4551;53.164;8.210;2023-03-15T08:24:45;3.00;99.90
9033;DHT22;4551;53.164;8.210;2023-03-15T08:27:13;3.10;99.90
9033;DHT22;4551;53.164;8.210;2023-03-15T08:29:41;3.10;99.90
9033;DHT22;4551;53.164;8.210;2023-03-15T08:32:09;3.20;99.90
9033;DHT22;4551;53.164;8.210;2023-03-15T08:34:38;3.20;99.90
9033;DHT22;4551;53.164;8.210;2023-03-15T08:37:08;3.30;99.90
9033;DHT22;4551;53.164;8.210;2023-03-15T08:39:37;3.40;99.90
9033;DHT22;4551;53.164;8.210;2023-03-15T08:42:05;3.50;99.90
9033;DHT22;4551;53.164;8.210;2023-03-15T08:44:33;3.50;99.90
9033;DHT22;4551;53.164;8.210;2023-03-15T08:47:05;3.50;99.90
9033;DHT22;4551;53.164;8.210;2023-03-15T08:49:35;3.60;99.90
9033;DHT22;4551;53.164;8.210;2023-03-15T08:52:08;3.70;99.90
9033;DHT22;4551;53.164;8.210;2023-03-15T08:54:36;3.80;99.90
9033;DHT22;4551;53.164;8.210;2023-03-15T08:57:04;3.80;99.90
9033;DHT22;4551;53.164;8.210;2023-03-15T08:59:34;3.90;99.90
9033;DHT22;4551;53.164;8.210;2023-03-15T09:02:02;3.90;99.90
9033;DHT22;4551;53.164;8.210;2023-03-15T09:04:30;4.00;99.90
9033;DHT22;4551;53.164;8.210;2023-03-15T09:06:58;4.00;99.90
9033;DHT22;4551;53.164;8.210;2023-03-15T09:09:28;4.10;99.90
9033;DHT22;4551;53.164;8.210;2023-03-15T09:11:56;4.10;99.90
9033;DHT22;4551;53.164;8.210;2023-03-15T09:14:24;4.10;99.90
9033;DHT22;4551;53.164;8.210;2023-03-15T09:16:52;4.20;99.90
9033;DHT22;4551;53.164;8.210;2023-03-15T09:19:20;4.30;99.90
9033;DHT22;4551;53.164;8.210;2023-03-15T09:21:48;4.40;99.90
9033;DHT22;4551;53.164;8.210;2023-03-15T09:24:16;4.40;99.90
9033;DHT22;4551;53.164;8.210;2023-03-15T09:26:46;4.40;99.90
9033;DHT22;4551;53.164;8.210;2023-03-15T09:29:14;4.50;99.90
9033;DHT22;4551;53.164;8.210;2023-03-15T09:31:42;4.60;99.90
9033;DHT22;4551;53.164;8.210;2023-03-15T09:34:10;4.70;99.90
9033;DHT22;4551;53.164;8.210;2023-03-15T09:36:38;4.80;99.90
9033;DHT22;4551;53.164;8.210;2023-03-15T09:39:06;4.80;99.90
9033;DHT22;4551;53.164;8.210;2023-03-15T09:41:41;4.90;99.90
9033;DHT22;4551;53.164;8.210;2023-03-15T09:44:20;5.00;99.90
9033;DHT22;4551;53.164;8.210;2023-03-15T09:46:54;5.00;99.90
9033;DHT22;4551;53.164;8.210;2023-03-15T09:49:27;4.40;99.90
9033;DHT22;4551;53.164;8.210;2023-03-15T09:52:01;3.70;99.90
9033;DHT22;4551;53.164;8.210;2023-03-15T09:54:33;3.30;99.90
9033;DHT22;4551;53.164;8.210;2023-03-15T09:57:07;2.80;99.90
9033;DHT22;4551;53.164;8.210;2023-03-15T09:59:42;2.60;99.90
9033;DHT22;4551;53.164;8.210;2023-03-15T10:02:16;2.40;99.90
9033;DHT22;4551;53.164;8.210;2023-03-15T10:04:46;2.20;99.90
9033;DHT22;4551;53.164;8.210;2023-03-15T10:07:16;2.00;99.90
9033;DHT22;4551;53.164;8.210;2023-03-15T10:09:45;1.90;99.90
9033;DHT22;4551;53.164;8.210;2023-03-15T10:12:13;1.80;99.90
9033;DHT22;4551;53.164;8.210;2023-03-15T10:14:50;1.70;99.90
9033;DHT22;4551;53.164;8.210;2023-03-15T10:17:23;1.70;99.90
9033;DHT22;4551;53.164;8.210;2023-03-15T10:19:57;1.70;99.90
9033;DHT22;4551;53.164;8.210;2023-03-15T10:22:28;1.70;99.90
9033;DHT22;4551;53.164;8.210;2023-03-15T10:24:58;1.70;99.90
9033;DHT22;4551;53.164;8.210;2023-03-15T10:27:30;1.70;99.90
9033;DHT22;4551;53.164;8.210;2023-03-15T10:30:00;1.80;99.90
9033;DHT22;4551;53.164;8.210;2023-03-15T10:32:29;1.90;99.90
9033;DHT22;4551;53.164;8.210;2023-03-15T10:35:05;1.70;99.90
9033;DHT22;4551;53.164;8.210;2023-03-15T10:37:37;2.00;99.90
9033;DHT22;4551;53.164;8.210;2023-03-15T10:40:06;2.10;99.90
9033;DHT22;4551;53.164;8.210;2023-03-15T10:42:41;2.10;99.90
9033;DHT22;4551;53.164;8.210;2023-03-15T10:45:17;2.10;99.90
9033;DHT22;4551;53.164;8.210;2023-03-15T10:47:46;2.30;99.90
9033;DHT22;4551;53.164;8.210;2023-03-15T10:50:25;2.30;99.90
9033;DHT22;4551;53.164;8.210;2023-03-15T10:52:54;2.30;99.90
9033;DHT22;4551;53.164;8.210;2023-03-15T10:55:27;2.40;99.90
9033;DHT22;4551;53.164;8.210;2023-03-15T10:57:57;2.40;99.90
9033;DHT22;4551;53.164;8.210;2023-03-15T11:00:28;2.40;99.90
9033;DHT22;4551;53.164;8.210;2023-03-15T11:03:01;2.30;99.90
9033;DHT22;4551;53.164;8.210;2023-03-15T11:05:30;2.30;99.90
9033;DHT22;4551;53.164;8.210;2023-03-15T11:07:59;2.20;99.90
9033;DHT22;4551;53.164;8.210;2023-03-15T11:10:28;2.20;99.90
9033;DHT22;4551;53.164;8.210;2023-03-15T11:13:10;2.20;99.90
9033;DHT22;4551;53.164;8.210;2023-03-15T11:15:42;2.20;99.90
9033;DHT22;4551;53.164;8.210;2023-03-15T11:18:16;2.20;99.90
9033;DHT22;4551;53.164;8.210;2023-03-15T11:20:44;2.20;99.90
9033;DHT22;4551;53.164;8.210;2023-03-15T11:23:13;2.20;99.90
9033;DHT22;4551;53.164;8.210;2023-03-15T11:25:41;2.20;99.90
9033;DHT22;4551;53.164;8.210;2023-03-15T11:28:11;2.30;99.90
9033;DHT22;4551;53.164;8.210;2023-03-15T11:30:42;2.30;99.90
9033;DHT22;4551;53.164;8.210;2023-03-15T11:33:18;2.40;99.90
9033;DHT22;4551;53.164;8.210;2023-03-15T11:35:48;2.40;99.90
9033;DHT22;4551;53.164;8.210;2023-03-15T11:38:21;2.50;99.90
9033;DHT22;4551;53.164;8.210;2023-03-15T11:40:52;2.50;99.90
9033;DHT22;4551;53.164;8.210;2023-03-15T11:43:23;2.60;99.90
9033;DHT22;4551;53.164;8.210;2023-03-15T11:45:54;2.60;99.90
9033;DHT22;4551;53.164;8.210;2023-03-15T11:48:23;2.60;99.90
9033;DHT22;4551;53.164;8.210;2023-03-15T11:50:55;2.60;99.90
9033;DHT22;4551;53.164;8.210;2023-03-15T11:53:24;2.60;99.90
9033;DHT22;4551;53.164;8.210;2023-03-15T11:55:54;2.60;99.90
9033;DHT22;4551;53.164;8.210;2023-03-15T11:58:27;2.70;99.90
9033;DHT22;4551;53.164;8.210;2023-03-15T12:01:00;2.70;99.90
9033;DHT22;4551;53.164;8.210;2023-03-15T12:03:30;2.70;99.90
9033;DHT22;4551;53.164;8.210;2023-03-15T12:06:02;2.80;99.90
9033;DHT22;4551;53.164;8.210;2023-03-15T12:08:42;2.90;99.90
9033;DHT22;4551;53.164;8.210;2023-03-15T12:11:10;3.00;99.90
9033;DHT22;4551;53.164;8.210;2023-03-15T12:13:49;3.00;99.90
9033;DHT22;4551;53.164;8.210;2023-03-15T12:16:20;2.90;99.90
9033;DHT22;4551;53.164;8.210;2023-03-15T12:18:49;3.00;99.90
9033;DHT22;4551;53.164;8.210;2023-03-15T12:21:21;3.10;99.90
9033;DHT22;4551;53.164;8.210;2023-03-15T12:23:57;3.20;99.90
9033;DHT22;4551;53.164;8.210;2023-03-15T12:26:31;3.40;99.90
9033;DHT22;4551;53.164;8.210;2023-03-15T12:31:52;3.80;99.90
9033;DHT22;4551;53.164;8.210;2023-03-15T12:34:26;4.00;99.90
9033;DHT22;4551;53.164;8.210;2023-03-15T12:36:55;4.20;99.90
9033;DHT22;4551;53.164;8.210;2023-03-15T12:39:35;4.40;99.90
9033;DHT22;4551;53.164;8.210;2023-03-15T12:42:03;4.50;99.90
9033;DHT22;4551;53.164;8.210;2023-03-15T12:44:38;4.70;99.90
9033;DHT22;4551;53.164;8.210;2023-03-15T12:47:08;4.90;99.90
9033;DHT22;4551;53.164;8.210;2023-03-15T12:49:37;5.10;99.90
9033;DHT22;4551;53.164;8.210;2023-03-15T12:54:50;5.50;99.90
9033;DHT22;4551;53.164;8.210;2023-03-15T12:57:21;5.80;99.90
9033;DHT22;4551;53.164;8.210;2023-03-15T12:59:51;6.10;99.90
9033;DHT22;4551;53.164;8.210;2023-03-15T13:02:28;6.30;99.90
9033;DHT22;4551;53.164;8.210;2023-03-15T13:05:12;6.60;99.90
9033;DHT22;4551;53.164;8.210;2023-03-15T13:07:53;7.00;99.90
9033;DHT22;4551;53.164;8.210;2023-03-15T13:10:33;7.30;99.90
9033;DHT22;4551;53.164;8.210;2023-03-15T13:13:05;7.70;99.90
9033;DHT22;4551;53.164;8.210;2023-03-15T13:15:39;8.10;99.90
9033;DHT22;4551;53.164;8.210;2023-03-15T13:18:12;8.40;99.90
9033;DHT22;4551;53.164;8.210;2023-03-15T13:20:49;8.70;99.90
9033;DHT22;4551;53.164;8.210;2023-03-15T13:23:19;9.00;99.90
9033;DHT22;4551;53.164;8.210;2023-03-15T13:25:50;9.40;99.90
9033;DHT22;4551;53.164;8.210;2023-03-15T13:28:23;9.80;99.90
9033;DHT22;4551;53.164;8.210;2023-03-15T13:30:53;10.20;99.90
9033;DHT22;4551;53.164;8.210;2023-03-15T13:33:23;10.60;99.90
9033;DHT22;4551;53.164;8.210;2023-03-15T13:35:55;10.90;99.90
9033;DHT22;4551;53.164;8.210;2023-03-15T13:38:25;11.10;99.90
9033;DHT22;4551;53.164;8.210;2023-03-15T13:40:53;11.40;99.90
9033;DHT22;4551;53.164;8.210;2023-03-15T13:43:28;11.80;99.90
9033;DHT22;4551;53.164;8.210;2023-03-15T13:45:57;12.10;99.90
9033;DHT22;4551;53.164;8.210;2023-03-15T13:48:27;12.50;99.90
9033;DHT22;4551;53.164;8.210;2023-03-15T13:50:55;12.60;99.90
9033;DHT22;4551;53.164;8.210;2023-03-15T13:53:27;12.80;99.90
9033;DHT22;4551;53.164;8.210;2023-03-15T13:56:15;12.70;99.90
9033;DHT22;4551;53.164;8.210;2023-03-15T13:58:44;12.90;99.90
9033;DHT22;4551;53.164;8.210;2023-03-15T14:01:12;13.10;99.90
9033;DHT22;4551;53.164;8.210;2023-03-15T14:03:42;13.10;99.90
9033;DHT22;4551;53.164;8.210;2023-03-15T14:06:19;13.20;99.90
9033;DHT22;4551;53.164;8.210;2023-03-15T14:08:47;13.10;99.90
9033;DHT22;4551;53.164;8.210;2023-03-15T14:11:17;13.20;99.90
9033;DHT22;4551;53.164;8.210;2023-03-15T14:13:46;13.50;99.90
9033;DHT22;4551;53.164;8.210;2023-03-15T14:16:30;13.70;99.90
9033;DHT22;4551;53.164;8.210;2023-03-15T14:19:17;13.40;99.90
9033;DHT22;4551;53.164;8.210;2023-03-15T14:21:45;13.70;99.90
9033;DHT22;4551;53.164;8.210;2023-03-15T14:24:15;13.40;99.90
9033;DHT22;4551;53.164;8.210;2023-03-15T14:26:48;13.30;99.90
9033;DHT22;4551;53.164;8.210;2023-03-15T14:29:17;13.50;99.90
9033;DHT22;4551;53.164;8.210;2023-03-15T14:31:47;13.90;99.90
9033;DHT22;4551;53.164;8.210;2023-03-15T14:34:19;14.00;99.90
9033;DHT22;4551;53.164;8.210;2023-03-15T14:36:50;14.20;99.90
9033;DHT22;4551;53.164;8.210;2023-03-15T14:39:23;14.40;99.90
9033;DHT22;4551;53.164;8.210;2023-03-15T14:41:51;14.30;99.90
9033;DHT22;4551;53.164;8.210;2023-03-15T14:44:22;14.40;99.90
9033;DHT22;4551;53.164;8.210;2023-03-15T14:46:50;14.50;99.90
9033;DHT22;4551;53.164;8.210;2023-03-15T14:49:20;14.50;99.90
9033;DHT22;4551;53.164;8.210;2023-03-15T14:51:51;14.60;99.90
9033;DHT22;4551;53.164;8.210;2023-03-15T14:54:19;14.00;99.90
9033;DHT22;4551;53.164;8.210;2023-03-15T14:56:48;13.80;99.90
9033;DHT22;4551;53.164;8.210;2023-03-15T14:59:16;13.40;99.90
9033;DHT22;4551;53.164;8.210;2023-03-15T15:01:45;12.90;99.90
9033;DHT22;4551;53.164;8.210;2023-03-15T15:04:14;13.00;99.90
9033;DHT22;4551;53.164;8.210;2023-03-15T15:06:44;12.70;99.90
9033;DHT22;4551;53.164;8.210;2023-03-15T15:09:18;12.60;99.90
9033;DHT22;4551;53.164;8.210;2023-03-15T15:11:48;12.60;99.90
9033;DHT22;4551;53.164;8.210;2023-03-15T15:14:17;12.80;99.90
9033;DHT22;4551;53.164;8.210;2023-03-15T15:16:45;12.50;99.90
9033;DHT22;4551;53.164;8.210;2023-03-15T15:19:13;11.70;99.90
9033;DHT22;4551;53.164;8.210;2023-03-15T15:21:41;11.20;99.90
9033;DHT22;4551;53.164;8.210;2023-03-15T15:24:12;10.70;99.90
9033;DHT22;4551;53.164;8.210;2023-03-15T15:26:41;10.30;99.90
9033;DHT22;4551;53.164;8.210;2023-03-15T15:29:10;10.40;99.90
9033;DHT22;4551;53.164;8.210;2023-03-15T15:31:39;10.40;99.90
9033;DHT22;4551;53.164;8.210;2023-03-15T15:34:08;10.50;99.90
9033;DHT22;4551;53.164;8.210;2023-03-15T15:36:37;10.60;99.90
9033;DHT22;4551;53.164;8.210;2023-03-15T15:39:10;10.40;99.90
9033;DHT22;4551;53.164;8.210;2023-03-15T15:41:43;10.10;99.90
9033;DHT22;4551;53.164;8.210;2023-03-15T15:44:13;10.10;99.90
9033;DHT22;4551;53.164;8.210;2023-03-15T15:46:41;10.20;99.90
9033;DHT22;4551;53.164;8.210;2023-03-15T15:49:09;10.40;99.90
9033;DHT22;4551;53.164;8.210;2023-03-15T15:51:38;10.60;99.90
9033;DHT22;4551;53.164;8.210;2023-03-15T15:54:12;10.80;99.90
9033;DHT22;4551;53.164;8.210;2023-03-15T15:56:41;11.00;99.90
9033;DHT22;4551;53.164;8.210;2023-03-15T15:59:13;10.80;99.90
9033;DHT22;4551;53.164;8.210;2023-03-15T16:01:42;10.80;99.90
9033;DHT22;4551;53.164;8.210;2023-03-15T16:04:26;10.80;99.90
9033;DHT22;4551;53.164;8.210;2023-03-15T16:06:54;10.60;99.90
9033;DHT22;4551;53.164;8.210;2023-03-15T16:09:24;10.40;99.90
9033;DHT22;4551;53.164;8.210;2023-03-15T16:11:53;10.30;99.90
9033;DHT22;4551;53.164;8.210;2023-03-15T16:14:24;10.40;99.90
9033;DHT22;4551;53.164;8.210;2023-03-15T16:16:52;10.60;99.90
9033;DHT22;4551;53.164;8.210;2023-03-15T16:19:20;10.80;99.90
9033;DHT22;4551;53.164;8.210;2023-03-15T16:21:48;10.80;99.90
9033;DHT22;4551;53.164;8.210;2023-03-15T16:24:20;11.00;99.90
9033;DHT22;4551;53.164;8.210;2023-03-15T16:26:50;11.20;99.90
9033;DHT22;4551;53.164;8.210;2023-03-15T16:29:19;11.00;99.90
9033;DHT22;4551;53.164;8.210;2023-03-15T16:31:49;10.70;99.90
9033;DHT22;4551;53.164;8.210;2023-03-15T16:34:17;10.60;99.90
9033;DHT22;4551;53.164;8.210;2023-03-15T16:36:49;10.60;99.90
9033;DHT22;4551;53.164;8.210;2023-03-15T16:39:20;10.60;99.90